createdAt,value
2023-03-04T00:00:12.443Z,7.23
2023-03-04T00:03:00.878Z,7.25
2023-03-04T00:05:31.262Z,7.28
2023-03-04T00:07:59.330Z,7.30
2023-03-04T00:10:27.545Z,7.32
2023-03-04T00:12:57.801Z,7.33
2023-03-04T00:15:26.183Z,7.34
2023-03-04T00:17:55.213Z,7.34
2023-03-04T00:20:24.122Z,7.35
2023-03-04T00:22:53.020Z,7.36
2023-03-04T00:25:22.289Z,7.37
2023-03-04T00:27:51.007Z,7.38
2023-03-04T00:30:20.143Z,7.37
2023-03-04T00:32:48.880Z,7.37
2023-03-04T00:35:17.318Z,7.37
2023-03-04T00:37:45.568Z,7.37
2023-03-04T00:40:14.317Z,7.36
2023-03-04T00:42:42.672Z,7.36
2023-03-04T00:45:11.139Z,7.35
2023-03-04T00:47:39.720Z,7.34
2023-03-04T00:50:09.493Z,7.33
2023-03-04T00:52:37.785Z,7.31
2023-03-04T00:55:09.209Z,7.32
2023-03-04T00:57:38.040Z,7.31
2023-03-04T01:00:11.478Z,7.30
2023-03-04T01:02:44.230Z,7.28
2023-03-04T01:05:13.422Z,7.26
2023-03-04T01:07:42.102Z,7.24
2023-03-04T01:10:13.114Z,7.24
2023-03-04T01:12:42.634Z,7.24
2023-03-04T01:15:14.252Z,7.23
2023-03-04T01:17:42.686Z,7.21
2023-03-04T01:20:12.164Z,7.21
2023-03-04T01:22:40.834Z,7.20
2023-03-04T01:25:10.676Z,7.21
2023-03-04T01:27:38.951Z,7.21
2023-03-04T01:30:07.861Z,7.21
2023-03-04T01:32:36.511Z,7.20
2023-03-04T01:35:05.519Z,7.18
2023-03-04T01:37:34.565Z,7.16
2023-03-04T01:40:02.961Z,7.15
2023-03-04T01:42:34.998Z,7.14
2023-03-04T01:45:06.398Z,7.12
2023-03-04T01:47:36.615Z,7.11
2023-03-04T01:50:11.627Z,7.09
2023-03-04T01:52:41.314Z,7.07
2023-03-04T01:55:18.264Z,7.06
2023-03-04T01:57:49.186Z,7.04
2023-03-04T02:00:25.725Z,7.04
2023-03-04T02:02:58.747Z,7.03
2023-03-04T02:05:28.715Z,7.02
2023-03-04T02:07:58.643Z,7.00
2023-03-04T02:10:28.265Z,7.00
2023-03-04T02:12:57.298Z,7.00
2023-03-04T02:15:26.392Z,7.00
2023-03-04T02:17:55.761Z,7.00
2023-03-04T02:20:54.589Z,7.01
2023-03-04T02:23:23.432Z,7.01
2023-03-04T02:26:12.077Z,6.99
2023-03-04T02:28:42.043Z,6.98
2023-03-04T02:31:35.835Z,6.97
2023-03-04T02:34:16.925Z,6.96
2023-03-04T02:36:47.069Z,6.94
2023-03-04T02:39:40.916Z,6.93
2023-03-04T02:42:10.972Z,6.91
2023-03-04T02:44:43.769Z,6.90
2023-03-04T02:47:18.037Z,6.89
2023-03-04T02:49:47.398Z,6.88
2023-03-04T02:52:22.742Z,6.88
2023-03-04T02:54:51.658Z,6.88
2023-03-04T02:57:20.555Z,6.88
2023-03-04T02:59:53.056Z,6.88
2023-03-04T03:02:24.101Z,6.89
2023-03-04T03:04:52.866Z,6.89
2023-03-04T03:07:22.265Z,6.89
2023-03-04T03:09:51.524Z,6.91
2023-03-04T03:12:20.449Z,6.91
2023-03-04T03:14:48.736Z,6.90
2023-03-04T03:17:21.237Z,6.88
2023-03-04T03:19:49.647Z,6.86
2023-03-04T03:22:18.421Z,6.85
2023-03-04T03:24:47.673Z,6.85
2023-03-04T03:27:17.127Z,6.85
2023-03-04T03:29:45.927Z,6.85
2023-03-04T03:32:14.966Z,6.86
2023-03-04T03:34:43.448Z,6.86
2023-03-04T03:37:13.491Z,6.86
2023-03-04T03:39:42.457Z,6.84
2023-03-04T03:42:11.688Z,6.84
2023-03-04T03:44:40.614Z,6.83
2023-03-04T03:47:09.315Z,6.84
2023-03-04T03:49:37.748Z,6.84
2023-03-04T03:52:08.550Z,6.84
2023-03-04T03:54:37.920Z,6.83
2023-03-04T03:57:07.431Z,6.83
2023-03-04T03:59:35.899Z,6.82
2023-03-04T04:02:04.750Z,6.82
2023-03-04T04:04:33.696Z,6.80
2023-03-04T04:07:05.690Z,6.80
2023-03-04T04:09:34.786Z,6.79
2023-03-04T04:12:07.845Z,6.78
2023-03-04T04:14:36.415Z,6.77
2023-03-04T04:17:04.735Z,6.76
2023-03-04T04:19:33.499Z,6.76
2023-03-04T04:22:02.290Z,6.75
2023-03-04T04:24:30.904Z,6.74
2023-03-04T04:27:00.012Z,6.71
2023-03-04T04:29:28.662Z,6.70
2023-03-04T04:31:57.198Z,6.68
2023-03-04T04:34:26.672Z,6.67
2023-03-04T04:36:55.021Z,6.65
2023-03-04T04:39:23.438Z,6.62
2023-03-04T04:41:51.650Z,6.61
2023-03-04T04:44:20.071Z,6.59
2023-03-04T04:46:48.421Z,6.57
2023-03-04T04:49:17.035Z,6.55
2023-03-04T04:51:46.697Z,6.54
2023-03-04T04:54:15.774Z,6.52
2023-03-04T04:56:44.079Z,6.51
2023-03-04T04:59:12.463Z,6.50
2023-03-04T05:01:41.597Z,6.48
2023-03-04T05:04:10.061Z,6.47
2023-03-04T05:06:39.585Z,6.45
2023-03-04T05:09:08.029Z,6.44
2023-03-04T05:11:36.888Z,6.43
2023-03-04T05:14:06.515Z,6.42
2023-03-04T05:16:36.781Z,6.41
2023-03-04T05:19:07.313Z,6.41
2023-03-04T05:21:36.159Z,6.39
2023-03-04T05:24:05.296Z,6.38
2023-03-04T05:26:34.399Z,6.38
2023-03-04T05:29:03.968Z,6.37
2023-03-04T05:31:34.673Z,6.36
2023-03-04T05:34:04.169Z,6.36
2023-03-04T05:36:33.439Z,6.37
2023-03-04T05:39:02.694Z,6.37
2023-03-04T05:41:31.167Z,6.37
2023-03-04T05:43:59.727Z,6.37
2023-03-04T05:46:28.530Z,6.36
2023-03-04T05:48:56.780Z,6.35
2023-03-04T05:51:25.624Z,6.33
2023-03-04T05:53:56.420Z,6.31
2023-03-04T05:56:25.116Z,6.30
2023-03-04T05:58:54.337Z,6.29
2023-03-04T06:01:23.226Z,6.28
2023-03-04T06:03:51.572Z,6.28
2023-03-04T06:06:20.010Z,6.28
2023-03-04T06:08:49.125Z,6.27
2023-03-04T06:11:17.515Z,6.27
2023-03-04T06:13:45.753Z,6.28
2023-03-04T06:16:14.033Z,6.28
2023-03-04T06:18:42.729Z,6.29
2023-03-04T06:21:11.649Z,6.29
2023-03-04T06:23:42.117Z,6.30
2023-03-04T06:26:15.457Z,6.29
2023-03-04T06:28:45.002Z,6.29
2023-03-04T06:31:13.460Z,6.28
2023-03-04T06:33:41.841Z,6.29
2023-03-04T06:36:10.756Z,6.30
2023-03-04T06:38:39.932Z,6.31
2023-03-04T06:41:10.902Z,6.31
2023-03-04T06:43:40.153Z,6.32
2023-03-04T06:46:09.549Z,6.34
2023-03-04T06:48:38.971Z,6.36
2023-03-04T06:51:11.879Z,6.37
2023-03-04T06:53:41.712Z,6.40
2023-03-04T06:56:12.548Z,6.41
2023-03-04T06:58:41.018Z,6.44
2023-03-04T07:01:18.383Z,6.46
2023-03-04T07:03:47.778Z,6.48
2023-03-04T07:06:19.513Z,6.51
2023-03-04T07:08:48.762Z,6.54
2023-03-04T07:11:18.717Z,6.56
2023-03-04T07:13:47.840Z,6.59
2023-03-04T07:16:19.631Z,6.62
2023-03-04T07:18:48.616Z,6.65
2023-03-04T07:21:18.389Z,6.68
2023-03-04T07:23:47.130Z,6.70
2023-03-04T07:26:17.385Z,6.74
2023-03-04T07:28:45.675Z,6.78
2023-03-04T07:31:23.454Z,6.82
2023-03-04T07:33:52.675Z,6.87
2023-03-04T07:36:21.771Z,6.90
2023-03-04T07:38:51.141Z,6.93
2023-03-04T07:41:19.467Z,6.95
2023-03-04T07:43:48.317Z,7.00
2023-03-04T07:46:19.154Z,7.03
2023-03-04T07:48:47.705Z,7.06
2023-03-04T07:51:19.749Z,7.09
2023-03-04T07:53:51.208Z,7.14
2023-03-04T07:56:23.845Z,7.18
2023-03-04T07:58:56.434Z,7.23
2023-03-04T08:01:34.190Z,7.28
2023-03-04T08:04:04.951Z,7.33
2023-03-04T08:06:34.650Z,7.37
2023-03-04T08:09:06.583Z,7.42
2023-03-04T08:11:36.560Z,7.47
2023-03-04T08:14:04.922Z,7.52
2023-03-04T08:16:33.679Z,7.56
2023-03-04T08:19:04.366Z,7.61
2023-03-04T08:21:33.937Z,7.66
2023-03-04T08:24:08.949Z,7.71
2023-03-04T08:26:43.628Z,7.77
2023-03-04T08:29:21.721Z,7.83
2023-03-04T08:31:51.600Z,7.87
2023-03-04T08:34:22.254Z,7.93
2023-03-04T08:36:50.864Z,7.99
2023-03-04T08:39:20.205Z,8.03
2023-03-04T08:41:49.083Z,8.08
2023-03-04T08:44:17.365Z,8.12
2023-03-04T08:46:45.870Z,8.14
2023-03-04T08:49:15.273Z,8.16
2023-03-04T08:51:45.509Z,8.19
2023-03-04T08:54:13.570Z,8.22
2023-03-04T08:56:42.321Z,8.24
2023-03-04T08:59:11.639Z,8.28
2023-03-04T09:01:40.138Z,8.30
2023-03-04T09:04:08.578Z,8.33
2023-03-04T09:06:36.922Z,8.36
2023-03-04T09:09:05.269Z,8.40
2023-03-04T09:11:33.572Z,8.45
2023-03-04T09:14:02.307Z,8.50
2023-03-04T09:16:31.342Z,8.58
2023-03-04T09:19:00.757Z,8.65
2023-03-04T09:21:29.642Z,8.72
2023-03-04T09:23:58.598Z,8.79
2023-03-04T09:26:29.906Z,8.86
2023-03-04T09:29:00.669Z,8.95
2023-03-04T09:31:30.260Z,9.02
2023-03-04T09:34:00.173Z,9.08
2023-03-04T09:36:29.317Z,9.13
2023-03-04T09:39:02.002Z,9.17
2023-03-04T09:41:47.195Z,9.23
2023-03-04T09:44:24.289Z,9.29
2023-03-04T09:46:56.019Z,9.33
2023-03-04T09:49:25.541Z,9.38
2023-03-04T09:52:09.826Z,9.42
2023-03-04T09:54:55.727Z,9.46
2023-03-04T09:57:40.881Z,9.50
2023-03-04T10:00:10.340Z,9.54
2023-03-04T10:03:04.495Z,9.58
2023-03-04T10:05:41.575Z,9.62
2023-03-04T10:08:31.363Z,9.65
2023-03-04T10:11:02.337Z,9.69
2023-03-04T10:14:16.487Z,9.72
2023-03-04T10:16:52.401Z,9.78
2023-03-04T10:19:23.798Z,9.83
2023-03-04T10:21:52.834Z,9.88
2023-03-04T10:24:28.908Z,9.93
2023-03-04T10:27:11.657Z,9.97
2023-03-04T10:29:40.453Z,10.01
2023-03-04T10:32:18.163Z,10.05
2023-03-04T10:34:47.307Z,10.09
2023-03-04T10:37:16.352Z,10.12
2023-03-04T10:39:46.854Z,10.16
2023-03-04T10:42:16.350Z,10.20
2023-03-04T10:44:56.560Z,10.25
2023-03-04T10:47:27.756Z,10.29
2023-03-04T10:49:58.636Z,10.32
2023-03-04T10:52:28.974Z,10.36
2023-03-04T10:55:02.859Z,10.40
2023-03-04T10:58:06.623Z,10.43
2023-03-04T11:00:37.132Z,10.47
2023-03-04T11:03:32.507Z,10.52
2023-03-04T11:06:22.233Z,10.56
2023-03-04T11:08:58.451Z,10.59
2023-03-04T11:11:44.877Z,10.61
2023-03-04T11:14:25.196Z,10.64
2023-03-04T11:17:02.307Z,10.68
2023-03-04T11:19:39.791Z,10.70
2023-03-04T11:22:15.022Z,10.73
2023-03-04T11:24:49.649Z,10.76
2023-03-04T11:27:31.208Z,10.79
2023-03-04T11:30:39.569Z,10.82
2023-03-04T11:33:43.026Z,10.88
2023-03-04T11:37:04.705Z,10.92
2023-03-04T11:39:38.816Z,10.97
2023-03-04T11:42:46.144Z,11.01
2023-03-04T11:45:43.845Z,11.07
2023-03-04T11:48:31.012Z,11.11
2023-03-04T11:51:47.913Z,11.16
2023-03-04T11:55:02.571Z,11.21
2023-03-04T11:57:33.546Z,11.26
2023-03-04T12:00:16.727Z,11.31
2023-03-04T12:03:13.228Z,11.34
2023-03-04T12:05:45.138Z,11.38
2023-03-04T12:08:44.466Z,11.42
2023-03-04T12:12:02.536Z,11.47
2023-03-04T12:14:44.450Z,11.52
2023-03-04T12:17:44.526Z,11.57
2023-03-04T12:20:21.772Z,11.61
2023-03-04T12:23:01.943Z,11.65
2023-03-04T12:26:23.282Z,11.69
2023-03-04T12:29:36.587Z,11.74
2023-03-04T12:32:14.736Z,11.79
2023-03-04T12:34:52.114Z,11.82
2023-03-04T12:37:37.655Z,11.86
2023-03-04T12:40:27.486Z,11.90
2023-03-04T12:43:14.460Z,11.93
2023-03-04T12:46:04.787Z,11.98
2023-03-04T12:48:45.811Z,12.01
2023-03-04T12:51:41.404Z,12.05
2023-03-04T12:54:32.271Z,12.10
2023-03-04T12:57:10.256Z,12.14
2023-03-04T13:00:14.562Z,12.19
2023-03-04T13:03:09.058Z,12.25
2023-03-04T13:06:05.026Z,12.29
2023-03-04T13:09:00.156Z,12.33
2023-03-04T13:11:28.507Z,12.37
2023-03-04T13:14:15.390Z,12.39
2023-03-04T13:17:01.854Z,12.43
2023-03-04T13:19:48.794Z,12.46
2023-03-04T13:22:32.573Z,12.49
2023-03-04T13:25:33.747Z,12.52
2023-03-04T13:28:13.919Z,12.55
2023-03-04T13:31:04.835Z,12.58
2023-03-04T13:33:33.669Z,12.62
2023-03-04T13:36:25.793Z,12.65
2023-03-04T13:39:14.571Z,12.68
2023-03-04T13:41:54.718Z,12.70
2023-03-04T13:44:57.857Z,12.73
2023-03-04T13:47:43.730Z,12.76
2023-03-04T13:50:37.483Z,12.78
2023-03-04T13:53:24.106Z,12.80
2023-03-04T13:56:25.438Z,12.83
2023-03-04T13:59:08.925Z,12.85
2023-03-04T14:02:17.734Z,12.88
2023-03-04T14:04:56.951Z,12.92
2023-03-04T14:07:29.724Z,12.96
2023-03-04T14:10:08.848Z,12.99
2023-03-04T14:12:56.511Z,13.03
2023-03-04T14:15:28.640Z,13.06
2023-03-04T14:17:59.616Z,13.10
2023-03-04T14:20:32.217Z,13.13
2023-03-04T14:23:05.157Z,13.17
2023-03-04T14:25:37.067Z,13.20
2023-03-04T14:28:14.303Z,13.21
2023-03-04T14:30:45.223Z,13.24
2023-03-04T14:33:29.004Z,13.27
2023-03-04T14:36:02.769Z,13.29
2023-03-04T14:38:38.427Z,13.32
2023-03-04T14:41:23.234Z,13.33
2023-03-04T14:44:12.467Z,13.35
2023-03-04T14:47:08.376Z,13.36
2023-03-04T14:49:38.438Z,13.38
2023-03-04T14:52:07.391Z,13.38
2023-03-04T14:54:41.888Z,13.38
2023-03-04T14:57:21.201Z,13.38
2023-03-04T14:59:52.192Z,13.38
2023-03-04T15:02:38.307Z,13.40
2023-03-04T15:05:36.578Z,13.41
2023-03-04T15:08:21.192Z,13.42
2023-03-04T15:11:06.174Z,13.44
2023-03-04T15:13:42.094Z,13.45
2023-03-04T15:16:13.555Z,13.46
2023-03-04T15:19:05.882Z,13.45
2023-03-04T15:21:40.316Z,13.46
2023-03-04T15:24:11.383Z,13.48
2023-03-04T15:26:42.651Z,13.51
2023-03-04T15:29:17.688Z,13.57
2023-03-04T15:31:51.996Z,13.65
2023-03-04T15:34:20.793Z,13.70
2023-03-04T15:36:51.580Z,13.75
2023-03-04T15:39:22.005Z,13.79
2023-03-04T15:41:51.058Z,13.83
2023-03-04T15:44:19.401Z,13.86
2023-03-04T15:46:47.728Z,13.84
2023-03-04T15:49:16.909Z,13.77
2023-03-04T15:51:45.646Z,13.67
2023-03-04T15:54:14.356Z,13.54
2023-03-04T15:56:43.166Z,13.40
2023-03-04T15:59:14.504Z,13.26
2023-03-04T16:01:43.873Z,13.10
2023-03-04T16:04:17.304Z,12.98
2023-03-04T16:06:48.863Z,12.84
2023-03-04T16:09:21.213Z,12.67
2023-03-04T16:11:50.370Z,12.53
2023-03-04T16:14:18.783Z,12.38
2023-03-04T16:16:48.201Z,12.23
2023-03-04T16:19:17.562Z,12.08
2023-03-04T16:21:46.838Z,11.95
2023-03-04T16:24:19.232Z,11.84
2023-03-04T16:26:48.061Z,11.76
2023-03-04T16:29:16.985Z,11.73
2023-03-04T16:31:45.302Z,11.72
2023-03-04T16:34:14.837Z,11.71
2023-03-04T16:36:43.425Z,11.72
2023-03-04T16:39:22.809Z,11.72
2023-03-04T16:41:53.532Z,11.72
2023-03-04T16:44:23.268Z,11.70
2023-03-04T16:46:53.393Z,11.68
2023-03-04T16:49:22.037Z,11.67
2023-03-04T16:51:51.269Z,11.65
2023-03-04T16:54:30.500Z,11.63
2023-03-04T16:56:59.360Z,11.60
2023-03-04T16:59:29.538Z,11.56
2023-03-04T17:01:58.806Z,11.53
2023-03-04T17:04:28.122Z,11.49
2023-03-04T17:06:58.009Z,11.46
2023-03-04T17:09:26.694Z,11.44
2023-03-04T17:11:57.814Z,11.41
2023-03-04T17:14:28.718Z,11.38
2023-03-04T17:16:57.598Z,11.35
2023-03-04T17:19:26.548Z,11.30
2023-03-04T17:21:59.809Z,11.27
2023-03-04T17:24:29.057Z,11.24
2023-03-04T17:26:57.322Z,11.21
2023-03-04T17:29:26.536Z,11.19
2023-03-04T17:31:55.272Z,11.15
2023-03-04T17:34:23.645Z,11.11
2023-03-04T17:36:52.614Z,11.08
2023-03-04T17:39:21.595Z,11.04
2023-03-04T17:41:51.389Z,11.02
2023-03-04T17:44:20.266Z,10.99
2023-03-04T17:46:49.056Z,10.96
2023-03-04T17:49:17.643Z,10.93
2023-03-04T17:51:46.556Z,10.89
2023-03-04T17:54:14.922Z,10.86
2023-03-04T17:56:44.613Z,10.83
2023-03-04T17:59:17.410Z,10.79
2023-03-04T18:01:46.309Z,10.75
2023-03-04T18:04:15.106Z,10.71
2023-03-04T18:06:43.267Z,10.67
2023-03-04T18:09:11.528Z,10.63
2023-03-04T18:11:42.223Z,10.59
2023-03-04T18:14:12.899Z,10.56
2023-03-04T18:16:41.379Z,10.53
2023-03-04T18:19:09.834Z,10.49
2023-03-04T18:21:38.500Z,10.44
2023-03-04T18:24:10.072Z,10.41
2023-03-04T18:26:39.039Z,10.37
2023-03-04T18:29:07.204Z,10.32
2023-03-04T18:31:37.061Z,10.26
2023-03-04T18:34:06.608Z,10.20
2023-03-04T18:36:34.791Z,10.17
2023-03-04T18:39:07.595Z,10.12
2023-03-04T18:41:36.452Z,10.08
2023-03-04T18:44:06.049Z,10.05
2023-03-04T18:46:54.473Z,10.02
2023-03-04T18:49:23.873Z,9.98
2023-03-04T18:51:53.842Z,9.94
2023-03-04T18:54:24.632Z,9.91
2023-03-04T18:56:59.943Z,9.91
2023-03-04T18:59:37.233Z,9.93
2023-03-04T19:02:20.242Z,9.94
2023-03-04T19:04:50.667Z,9.95
2023-03-04T19:07:18.879Z,9.98
2023-03-04T19:09:47.581Z,10.01
2023-03-04T19:12:15.842Z,10.05
2023-03-04T19:14:45.346Z,10.09
2023-03-04T19:17:14.686Z,10.12
2023-03-04T19:19:43.024Z,10.16
2023-03-04T19:22:12.928Z,10.22
2023-03-04T19:24:41.962Z,10.26
2023-03-04T19:27:10.237Z,10.29
2023-03-04T19:29:38.958Z,10.33
2023-03-04T19:32:07.876Z,10.36
2023-03-04T19:34:36.445Z,10.38
2023-03-04T19:37:05.027Z,10.41
2023-03-04T19:39:35.982Z,10.43
2023-03-04T19:42:04.468Z,10.45
2023-03-04T19:44:32.932Z,10.47
2023-03-04T19:47:01.778Z,10.49
2023-03-04T19:49:35.267Z,10.51
2023-03-04T19:52:04.922Z,10.53
2023-03-04T19:54:34.073Z,10.55
2023-03-04T19:57:04.812Z,10.58
2023-03-04T19:59:34.808Z,10.60
2023-03-04T20:02:03.300Z,10.62
2023-03-04T20:04:31.925Z,10.63
2023-03-04T20:07:00.769Z,10.64
2023-03-04T20:09:28.971Z,10.65
2023-03-04T20:11:59.290Z,10.63
2023-03-04T20:14:28.168Z,10.58
2023-03-04T20:17:02.618Z,10.53
2023-03-04T20:19:32.215Z,10.45
2023-03-04T20:22:00.973Z,10.39
2023-03-04T20:24:29.651Z,10.34
2023-03-04T20:26:58.355Z,10.29
2023-03-04T20:29:29.071Z,10.22
2023-03-04T20:31:58.427Z,10.15
2023-03-04T20:34:27.220Z,10.08
2023-03-04T20:36:55.286Z,10.01
2023-03-04T20:39:29.615Z,9.93
2023-03-04T20:41:59.548Z,9.87
2023-03-04T20:44:28.858Z,9.80
2023-03-04T20:46:57.492Z,9.75
2023-03-04T20:49:29.037Z,9.67
2023-03-04T20:52:03.334Z,9.59
2023-03-04T20:54:33.058Z,9.51
2023-03-04T20:57:01.781Z,9.43
2023-03-04T20:59:30.408Z,9.37
2023-03-04T21:02:00.208Z,9.30
2023-03-04T21:04:28.929Z,9.24
2023-03-04T21:06:57.744Z,9.16
2023-03-04T21:09:27.516Z,9.11
2023-03-04T21:11:57.092Z,9.05
2023-03-04T21:14:31.830Z,9.01
2023-03-04T21:17:02.847Z,8.96
2023-03-04T21:19:36.366Z,8.93
2023-03-04T21:22:05.006Z,8.88
2023-03-04T21:24:35.368Z,8.83
2023-03-04T21:27:04.897Z,8.79
2023-03-04T21:29:34.604Z,8.76
2023-03-04T21:32:23.889Z,8.71
2023-03-04T21:34:54.720Z,8.67
2023-03-04T21:37:24.815Z,8.65
2023-03-04T21:39:55.245Z,8.62
2023-03-04T21:42:23.916Z,8.59
2023-03-04T21:44:53.443Z,8.58
2023-03-04T21:47:22.794Z,8.60
2023-03-04T21:49:51.508Z,8.64
2023-03-04T21:52:21.927Z,8.67
2023-03-04T21:54:50.698Z,8.70
2023-03-04T21:57:19.816Z,8.73
2023-03-04T21:59:48.712Z,8.76
2023-03-04T22:02:20.783Z,8.79
2023-03-04T22:04:49.041Z,8.82
2023-03-04T22:07:18.339Z,8.85
2023-03-04T22:09:47.254Z,8.86
2023-03-04T22:12:18.300Z,8.87
2023-03-04T22:14:48.005Z,8.88
2023-03-04T22:17:16.793Z,8.86
2023-03-04T22:19:46.240Z,8.82
2023-03-04T22:22:18.123Z,8.77
2023-03-04T22:24:46.588Z,8.72
2023-03-04T22:27:16.039Z,8.68
2023-03-04T22:29:44.925Z,8.63
2023-03-04T22:32:15.540Z,8.58
2023-03-04T22:34:43.924Z,8.54
2023-03-04T22:37:12.792Z,8.51
2023-03-04T22:39:41.634Z,8.48
2023-03-04T22:42:11.887Z,8.42
2023-03-04T22:44:40.233Z,8.37
2023-03-04T22:47:09.567Z,8.35
2023-03-04T22:49:42.337Z,8.32
2023-03-04T22:52:11.626Z,8.29
2023-03-04T22:54:39.875Z,8.27
2023-03-04T22:57:08.055Z,8.25
2023-03-04T22:59:36.478Z,8.22
2023-03-04T23:02:05.277Z,8.18
2023-03-04T23:04:33.958Z,8.16
2023-03-04T23:07:03.153Z,8.13
2023-03-04T23:09:32.360Z,8.10
2023-03-04T23:12:01.584Z,8.08
2023-03-04T23:14:30.064Z,8.04
2023-03-04T23:16:58.530Z,8.00
2023-03-04T23:19:27.536Z,7.97
2023-03-04T23:21:56.817Z,7.92
2023-03-04T23:24:26.829Z,7.87
2023-03-04T23:26:56.450Z,7.84
2023-03-04T23:29:24.733Z,7.82
2023-03-04T23:31:53.084Z,7.80
2023-03-04T23:34:22.361Z,7.76
2023-03-04T23:36:50.849Z,7.73
2023-03-04T23:39:21.218Z,7.71
2023-03-04T23:41:50.326Z,7.69
2023-03-04T23:44:19.020Z,7.66
2023-03-04T23:46:47.331Z,7.64
2023-03-04T23:49:18.105Z,7.61
2023-03-04T23:51:47.069Z,7.56
2023-03-04T23:54:15.958Z,7.53
2023-03-04T23:56:44.851Z,7.50
2023-03-04T23:59:13.470Z,7.47
